createdAt,value
2023-03-17T00:00:48.047Z,99267.56
2023-03-17T00:03:27.882Z,99265.72
2023-03-17T00:05:58.806Z,99270.33
2023-03-17T00:08:36.677Z,99275.58
2023-03-17T00:11:11.819Z,99284.64
2023-03-17T00:13:42.343Z,99278.97
2023-03-17T00:16:18.792Z,99278.00
2023-03-17T00:18:48.764Z,99269.14
2023-03-17T00:21:29.161Z,99264.70
2023-03-17T00:24:00.240Z,99261.02
2023-03-17T00:26:29.174Z,99257.16
2023-03-17T00:28:58.227Z,99260.98
2023-03-17T00:31:30.247Z,99253.84
2023-03-17T00:33:59.433Z,99250.13
2023-03-17T00:36:33.637Z,99244.52
2023-03-17T00:41:44.993Z,99235.31
2023-03-17T00:44:14.750Z,99236.70
2023-03-17T00:46:43.764Z,99229.05
2023-03-17T00:49:21.599Z,99227.56
2023-03-17T00:51:51.355Z,99227.27
2023-03-17T00:54:21.027Z,99225.75
2023-03-17T00:56:52.467Z,99215.50
2023-03-17T00:59:26.849Z,99203.61
2023-03-17T01:01:56.835Z,99191.95
2023-03-17T01:04:25.988Z,99189.70
2023-03-17T01:06:54.805Z,99181.11
2023-03-17T01:09:27.498Z,99177.22
2023-03-17T01:11:56.573Z,99179.73
2023-03-17T01:14:25.383Z,99183.23
2023-03-17T01:16:55.799Z,99178.09
2023-03-17T01:19:24.766Z,99178.30
2023-03-17T01:21:53.641Z,99182.73
2023-03-17T01:24:22.800Z,99190.75
2023-03-17T01:26:52.238Z,99198.41
2023-03-17T01:29:21.991Z,99200.88
2023-03-17T01:31:53.849Z,99192.89
2023-03-17T01:34:23.539Z,99184.52
2023-03-17T01:36:52.355Z,99173.93
2023-03-17T01:39:21.333Z,99170.15
2023-03-17T01:41:57.319Z,99163.03
2023-03-17T01:44:25.989Z,99162.65
2023-03-17T01:46:55.021Z,99160.97
2023-03-17T01:49:36.041Z,99158.55
2023-03-17T01:52:17.476Z,99161.73
2023-03-17T01:55:10.935Z,99161.17
2023-03-17T01:57:45.895Z,99150.55
2023-03-17T02:00:19.074Z,99146.55
2023-03-17T02:02:51.704Z,99144.22
2023-03-17T02:05:25.011Z,99146.09
2023-03-17T02:07:56.153Z,99150.31
2023-03-17T02:10:30.536Z,99151.77
2023-03-17T02:13:04.257Z,99150.33
2023-03-17T02:15:44.854Z,99142.98
2023-03-17T02:18:14.790Z,99146.10
2023-03-17T02:20:47.368Z,99148.25
2023-03-17T02:23:22.653Z,99140.98
2023-03-17T02:25:53.634Z,99139.73
2023-03-17T02:28:30.229Z,99143.86
2023-03-17T02:30:59.149Z,99143.73
2023-03-17T02:33:28.405Z,99137.97
2023-03-17T02:35:57.380Z,99135.19
2023-03-17T02:38:26.845Z,99136.94
2023-03-17T02:40:55.495Z,99134.63
2023-03-17T02:43:24.247Z,99127.05
2023-03-17T02:45:53.317Z,99128.92
2023-03-17T02:48:23.239Z,99132.83
2023-03-17T02:50:51.789Z,99125.85
2023-03-17T02:53:21.275Z,99120.75
2023-03-17T02:55:50.718Z,99113.17
2023-03-17T02:58:19.270Z,99111.40
2023-03-17T03:00:49.246Z,99111.84
2023-03-17T03:03:18.177Z,99108.48
2023-03-17T03:05:47.701Z,99105.45
2023-03-17T03:08:17.253Z,99112.90
2023-03-17T03:10:47.116Z,99114.88
2023-03-17T03:13:15.591Z,99120.70
2023-03-17T03:15:44.597Z,99123.98
2023-03-17T03:18:13.550Z,99118.02
2023-03-17T03:20:44.805Z,99113.27
2023-03-17T03:23:14.647Z,99103.48
2023-03-17T03:25:43.739Z,99100.80
2023-03-17T03:28:12.364Z,99098.25
2023-03-17T03:30:42.520Z,99091.88
2023-03-17T03:33:13.679Z,99089.77
2023-03-17T03:35:43.350Z,99088.46
2023-03-17T03:38:12.878Z,99089.77
2023-03-17T03:40:41.846Z,99092.61
2023-03-17T03:43:22.353Z,99092.67
2023-03-17T03:45:52.397Z,99087.42
2023-03-17T03:48:22.273Z,99089.86
2023-03-17T03:50:50.918Z,99086.07
2023-03-17T03:53:19.917Z,99083.59
2023-03-17T03:55:48.768Z,99077.93
2023-03-17T03:58:17.677Z,99074.17
2023-03-17T04:00:47.099Z,99079.64
2023-03-17T04:03:16.485Z,99071.71
2023-03-17T04:05:45.709Z,99069.80
2023-03-17T04:08:14.581Z,99066.98
2023-03-17T04:10:43.181Z,99068.11
2023-03-17T04:13:11.984Z,99066.87
2023-03-17T04:15:41.285Z,99064.20
2023-03-17T04:18:10.301Z,99063.77
2023-03-17T04:20:39.186Z,99063.39
2023-03-17T04:23:08.521Z,99063.32
2023-03-17T04:25:37.521Z,99072.13
2023-03-17T04:28:06.691Z,99074.27
2023-03-17T04:30:35.684Z,99069.42
2023-03-17T04:33:04.431Z,99071.40
2023-03-17T04:35:33.073Z,99068.84
2023-03-17T04:38:02.160Z,99065.11
2023-03-17T04:40:31.551Z,99065.13
2023-03-17T04:43:02.435Z,99066.66
2023-03-17T04:45:33.064Z,99065.94
2023-03-17T04:48:01.824Z,99063.48
2023-03-17T04:50:30.681Z,99063.47
2023-03-17T04:52:59.960Z,99065.34
2023-03-17T04:55:29.004Z,99063.45
2023-03-17T04:57:57.501Z,99057.88
2023-03-17T05:00:27.217Z,99053.91
2023-03-17T05:02:55.926Z,99054.06
2023-03-17T05:05:24.550Z,99050.58
2023-03-17T05:07:53.621Z,99047.04
2023-03-17T05:10:22.555Z,99044.03
2023-03-17T05:12:54.211Z,99050.40
2023-03-17T05:15:23.656Z,99053.39
2023-03-17T05:17:52.143Z,99054.46
2023-03-17T05:20:20.723Z,99053.70
2023-03-17T05:22:49.634Z,99055.61
2023-03-17T05:25:18.253Z,99061.58
2023-03-17T05:27:46.791Z,99059.44
2023-03-17T05:30:16.235Z,99065.05
2023-03-17T05:32:44.823Z,99065.55
2023-03-17T05:35:13.893Z,99064.62
2023-03-17T05:37:42.998Z,99064.73
2023-03-17T05:40:13.152Z,99066.05
2023-03-17T05:42:42.959Z,99061.92
2023-03-17T05:45:12.594Z,99058.36
2023-03-17T05:47:41.084Z,99055.70
2023-03-17T05:50:14.264Z,99050.13
2023-03-17T05:52:43.615Z,99050.30
2023-03-17T05:55:12.870Z,99049.31
2023-03-17T05:57:41.970Z,99052.48
2023-03-17T06:00:12.840Z,99052.73
2023-03-17T06:02:42.300Z,99057.42
2023-03-17T06:05:11.507Z,99060.02
2023-03-17T06:07:53.092Z,99053.25
2023-03-17T06:10:25.573Z,99040.56
2023-03-17T06:12:54.241Z,99041.23
2023-03-17T06:15:23.047Z,99038.34
2023-03-17T06:17:52.537Z,99035.70
2023-03-17T06:20:22.217Z,99041.97
2023-03-17T06:23:03.485Z,99042.87
2023-03-17T06:25:35.567Z,99040.90
2023-03-17T06:28:05.877Z,99039.95
2023-03-17T06:30:39.394Z,99039.69
2023-03-17T06:33:09.377Z,99038.36
2023-03-17T06:35:39.308Z,99035.65
2023-03-17T06:38:07.971Z,99031.05
2023-03-17T06:40:37.236Z,99031.27
2023-03-17T06:43:06.097Z,99025.27
2023-03-17T06:45:35.139Z,99027.52
2023-03-17T06:48:03.907Z,99023.33
2023-03-17T06:50:33.591Z,99021.59
2023-03-17T06:53:02.491Z,99022.12
2023-03-17T06:55:32.365Z,99023.02
2023-03-17T06:58:03.580Z,99013.98
2023-03-17T07:00:33.335Z,99009.29
2023-03-17T07:03:03.369Z,99012.23
2023-03-17T07:05:34.113Z,99021.73
2023-03-17T07:08:02.705Z,99022.90
2023-03-17T07:10:31.825Z,99019.88
2023-03-17T07:13:01.234Z,99014.67
2023-03-17T07:15:35.092Z,99014.69
2023-03-17T07:18:05.404Z,99020.58
2023-03-17T07:20:33.840Z,99016.48
2023-03-17T07:23:04.049Z,99015.56
2023-03-17T07:25:37.026Z,99017.72
2023-03-17T07:28:06.174Z,99019.76
2023-03-17T07:30:35.088Z,99017.43
2023-03-17T07:33:04.596Z,99016.70
2023-03-17T07:35:35.088Z,99008.36
2023-03-17T07:38:04.196Z,99010.51
2023-03-17T07:40:35.242Z,99007.65
2023-03-17T07:43:05.249Z,99009.30
2023-03-17T07:45:36.438Z,99010.98
2023-03-17T07:48:06.930Z,99004.45
2023-03-17T07:50:37.232Z,99006.48
2023-03-17T07:53:05.912Z,99005.89
2023-03-17T07:55:36.333Z,99007.05
2023-03-17T07:58:06.039Z,99001.27
2023-03-17T08:00:35.210Z,98997.65
2023-03-17T08:03:10.354Z,98999.09
2023-03-17T08:05:40.142Z,98993.23
2023-03-17T08:08:09.669Z,98994.38
2023-03-17T08:10:38.590Z,98991.70
2023-03-17T08:13:07.969Z,98989.17
2023-03-17T08:15:37.553Z,98982.98
2023-03-17T08:18:06.322Z,98981.96
2023-03-17T08:20:35.904Z,98978.68
2023-03-17T08:23:05.417Z,98982.34
2023-03-17T08:25:34.407Z,98974.83
2023-03-17T08:28:04.929Z,98976.76
2023-03-17T08:30:35.576Z,98976.91
2023-03-17T08:33:09.325Z,98977.25
2023-03-17T08:35:42.295Z,98979.51
2023-03-17T08:38:11.514Z,98982.45
2023-03-17T08:40:40.683Z,98983.33
2023-03-17T08:43:09.349Z,98976.88
2023-03-17T08:45:39.389Z,98972.70
2023-03-17T08:48:08.656Z,98969.55
2023-03-17T08:50:37.980Z,98971.93
2023-03-17T08:53:06.743Z,98975.56
2023-03-17T08:55:35.622Z,98985.13
2023-03-17T08:58:05.819Z,98988.79
2023-03-17T09:00:34.964Z,98988.61
2023-03-17T09:03:04.173Z,98996.92
2023-03-17T09:05:59.709Z,98997.02
2023-03-17T09:08:45.226Z,98979.16
2023-03-17T09:11:19.328Z,98969.35
2023-03-17T09:13:49.086Z,98967.40
2023-03-17T09:16:20.577Z,98965.98
2023-03-17T09:18:50.256Z,98968.48
2023-03-17T09:21:19.277Z,98980.90
2023-03-17T09:23:48.568Z,98991.59
2023-03-17T09:26:17.724Z,98990.51
2023-03-17T09:28:46.353Z,99000.30
2023-03-17T09:31:15.224Z,99000.60
2023-03-17T09:33:44.239Z,98992.02
2023-03-17T09:36:13.845Z,98987.92
2023-03-17T09:38:42.680Z,98980.45
2023-03-17T09:41:20.289Z,98986.17
2023-03-17T09:43:57.956Z,98993.77
2023-03-17T09:47:01.063Z,98998.59
2023-03-17T09:49:47.320Z,98995.98
2023-03-17T09:52:18.981Z,98993.73
2023-03-17T09:55:08.875Z,99003.45
2023-03-17T09:57:40.664Z,99007.09
2023-03-17T10:00:27.063Z,98999.47
2023-03-17T10:03:00.164Z,98990.30
2023-03-17T10:05:36.088Z,98985.61
2023-03-17T10:08:31.395Z,98982.75
2023-03-17T10:11:11.366Z,98979.19
2023-03-17T10:13:58.396Z,98969.75
2023-03-17T10:16:43.442Z,98967.02
2023-03-17T10:19:27.790Z,98963.06
2023-03-17T10:22:04.573Z,98961.08
2023-03-17T10:24:34.813Z,98956.95
2023-03-17T10:27:06.663Z,98956.08
2023-03-17T10:29:37.567Z,98949.81
2023-03-17T10:32:12.781Z,98943.23
2023-03-17T10:34:43.169Z,98949.46
2023-03-17T10:37:21.690Z,98948.44
2023-03-17T10:39:56.529Z,98947.23
2023-03-17T10:42:32.584Z,98946.38
2023-03-17T10:45:28.087Z,98933.05
2023-03-17T10:47:59.200Z,98925.42
2023-03-17T10:50:31.019Z,98919.88
2023-03-17T10:53:11.209Z,98921.59
2023-03-17T10:55:50.077Z,98914.12
2023-03-17T10:58:39.588Z,98901.67
2023-03-17T11:01:21.283Z,98901.91
2023-03-17T11:03:50.306Z,98907.35
2023-03-17T11:06:26.350Z,98909.30
2023-03-17T11:08:56.220Z,98911.92
2023-03-17T11:11:35.058Z,98905.55
2023-03-17T11:14:14.347Z,98899.32
2023-03-17T11:17:04.652Z,98897.76
2023-03-17T11:19:36.686Z,98897.43
2023-03-17T11:22:10.359Z,98895.15
2023-03-17T11:24:51.531Z,98887.30
2023-03-17T11:27:43.948Z,98882.42
2023-03-17T11:30:37.437Z,98882.46
2023-03-17T11:33:18.808Z,98878.33
2023-03-17T11:36:06.559Z,98873.34
2023-03-17T11:38:42.148Z,98862.73
2023-03-17T11:41:31.924Z,98862.06
2023-03-17T11:44:12.127Z,98855.14
2023-03-17T11:46:47.058Z,98844.92
2023-03-17T11:49:22.632Z,98837.13
2023-03-17T11:52:12.920Z,98836.09
2023-03-17T11:55:06.104Z,98831.78
2023-03-17T11:57:40.085Z,98832.33
2023-03-17T12:00:17.224Z,98833.56
2023-03-17T12:02:57.029Z,98834.29
2023-03-17T12:05:27.864Z,98835.69
2023-03-17T12:08:02.520Z,98831.20
2023-03-17T12:10:40.928Z,98829.30
2023-03-17T12:13:17.039Z,98827.39
2023-03-17T12:15:51.528Z,98818.02
2023-03-17T12:18:36.571Z,98818.70
2023-03-17T12:21:16.041Z,98816.09
2023-03-17T12:23:52.701Z,98818.02
2023-03-17T12:26:33.805Z,98813.48
2023-03-17T12:29:26.188Z,98809.32
2023-03-17T12:32:12.772Z,98807.94
2023-03-17T12:35:06.382Z,98808.64
2023-03-17T12:37:35.164Z,98814.02
2023-03-17T12:40:10.740Z,98810.19
2023-03-17T12:42:55.248Z,98805.15
2023-03-17T12:45:49.081Z,98802.36
2023-03-17T12:48:30.107Z,98802.71
2023-03-17T12:51:20.889Z,98803.40
2023-03-17T12:53:51.876Z,98808.26
2023-03-17T12:56:30.249Z,98800.24
2023-03-17T12:59:16.463Z,98797.27
2023-03-17T13:01:53.700Z,98797.14
2023-03-17T13:04:33.379Z,98797.14
2023-03-17T13:07:17.575Z,98792.45
2023-03-17T13:10:33.879Z,98791.06
2023-03-17T13:13:36.120Z,98789.67
2023-03-17T13:16:06.773Z,98785.85
2023-03-17T13:18:35.385Z,98785.70
2023-03-17T13:21:04.538Z,98785.52
2023-03-17T13:23:35.004Z,98778.91
2023-03-17T13:26:04.739Z,98778.73
2023-03-17T13:28:37.358Z,98775.61
2023-03-17T13:31:28.792Z,98776.48
2023-03-17T13:34:15.760Z,98777.69
2023-03-17T13:36:48.208Z,98771.43
2023-03-17T13:39:31.491Z,98775.27
2023-03-17T13:42:19.034Z,98775.43
2023-03-17T13:45:17.196Z,98781.52
2023-03-17T13:47:47.468Z,98788.98
2023-03-17T13:50:23.961Z,98787.09
2023-03-17T13:53:05.133Z,98784.65
2023-03-17T13:55:36.638Z,98780.83
2023-03-17T13:58:11.148Z,98780.98
2023-03-17T14:00:44.321Z,98782.56
2023-03-17T14:03:18.310Z,98781.36
2023-03-17T14:05:49.991Z,98773.70
2023-03-17T14:08:20.639Z,98769.52
2023-03-17T14:11:02.583Z,98762.92
2023-03-17T14:13:42.864Z,98760.83
2023-03-17T14:16:27.392Z,98753.02
2023-03-17T14:19:01.593Z,98752.14
2023-03-17T14:21:32.630Z,98746.23
2023-03-17T14:24:16.346Z,98748.13
2023-03-17T14:26:45.298Z,98746.04
2023-03-17T14:29:17.188Z,98746.70
2023-03-17T14:31:53.262Z,98742.18
2023-03-17T14:34:23.306Z,98735.23
2023-03-17T14:36:52.430Z,98738.17
2023-03-17T14:39:26.233Z,98734.00
2023-03-17T14:42:03.299Z,98732.45
2023-03-17T14:44:44.886Z,98732.09
2023-03-17T14:47:24.875Z,98730.53
2023-03-17T14:49:54.954Z,98726.54
2023-03-17T14:52:28.970Z,98722.19
2023-03-17T14:54:59.826Z,98720.45
2023-03-17T14:57:33.186Z,98719.05
2023-03-17T15:00:16.236Z,98716.60
2023-03-17T15:02:57.949Z,98713.63
2023-03-17T15:05:36.240Z,98707.71
2023-03-17T15:08:42.966Z,98710.66
2023-03-17T15:11:23.807Z,98702.48
2023-03-17T15:14:15.297Z,98699.52
2023-03-17T15:16:53.497Z,98703.51
2023-03-17T15:19:30.423Z,98705.92
2023-03-17T15:22:00.900Z,98703.84
2023-03-17T15:24:40.449Z,98702.61
2023-03-17T15:27:18.457Z,98702.27
2023-03-17T15:29:48.550Z,98699.65
2023-03-17T15:32:20.780Z,98698.77
2023-03-17T15:34:52.255Z,98696.69
2023-03-17T15:37:26.993Z,98703.27
2023-03-17T15:39:56.766Z,98698.56
2023-03-17T15:42:28.698Z,98692.83
2023-03-17T15:45:00.326Z,98697.50
2023-03-17T15:47:32.679Z,98694.52
2023-03-17T15:50:22.223Z,98693.29
2023-03-17T15:52:54.273Z,98692.91
2023-03-17T15:55:26.114Z,98695.30
2023-03-17T15:57:55.693Z,98697.52
2023-03-17T16:00:26.772Z,98690.52
2023-03-17T16:02:59.048Z,98691.33
2023-03-17T16:05:32.103Z,98689.55
2023-03-17T16:08:01.346Z,98690.39
2023-03-17T16:10:32.844Z,98689.66
2023-03-17T16:13:02.140Z,98685.64
2023-03-17T16:15:35.446Z,98689.77
2023-03-17T16:18:07.847Z,98689.41
2023-03-17T16:21:04.555Z,98683.85
2023-03-17T16:23:37.110Z,98685.05
2023-03-17T16:26:16.523Z,98682.77
2023-03-17T16:28:47.909Z,98677.23
2023-03-17T16:31:25.910Z,98668.38
2023-03-17T16:33:55.328Z,98669.25
2023-03-17T16:36:25.196Z,98673.05
2023-03-17T16:38:54.005Z,98675.61
2023-03-17T16:41:27.845Z,98680.42
2023-03-17T16:44:06.858Z,98683.17
2023-03-17T16:46:35.841Z,98684.86
2023-03-17T16:49:05.377Z,98689.16
2023-03-17T16:51:34.262Z,98693.43
2023-03-17T16:54:02.792Z,98698.55
2023-03-17T16:56:32.038Z,98702.79
2023-03-17T16:59:01.922Z,98705.30
2023-03-17T17:01:30.676Z,98701.02
2023-03-17T17:03:59.544Z,98700.55
2023-03-17T17:06:28.364Z,98706.14
2023-03-17T17:08:59.879Z,98709.84
2023-03-17T17:11:28.682Z,98709.04
2023-03-17T17:13:58.828Z,98706.17
2023-03-17T17:16:29.551Z,98707.66
2023-03-17T17:19:00.664Z,98708.66
2023-03-17T17:21:29.625Z,98707.95
2023-03-17T17:23:58.921Z,98705.02
2023-03-17T17:26:28.280Z,98704.52
2023-03-17T17:28:57.210Z,98702.29
2023-03-17T17:31:25.909Z,98700.55
2023-03-17T17:33:55.842Z,98697.44
2023-03-17T17:36:26.545Z,98696.40
2023-03-17T17:38:55.245Z,98692.92
2023-03-17T17:41:24.692Z,98691.18
2023-03-17T17:43:54.253Z,98690.30
2023-03-17T17:46:23.597Z,98693.71
2023-03-17T17:48:53.061Z,98692.99
2023-03-17T17:51:21.618Z,98691.06
2023-03-17T17:53:50.404Z,98686.89
2023-03-17T17:56:19.441Z,98687.58
2023-03-17T17:58:48.096Z,98691.05
2023-03-17T18:01:20.270Z,98692.09
2023-03-17T18:04:02.809Z,98687.57
2023-03-17T18:06:57.288Z,98686.11
2023-03-17T18:09:46.180Z,98685.33
2023-03-17T18:12:38.305Z,98690.80
2023-03-17T18:15:28.123Z,98693.38
2023-03-17T18:18:18.786Z,98694.04
2023-03-17T18:21:15.192Z,98693.36
2023-03-17T18:24:01.388Z,98691.10
2023-03-17T18:26:53.244Z,98687.48
2023-03-17T18:29:43.258Z,98685.26
2023-03-17T18:32:38.867Z,98692.17
2023-03-17T18:35:30.599Z,98683.52
2023-03-17T18:38:20.859Z,98681.27
2023-03-17T18:41:07.005Z,98682.80
2023-03-17T18:43:46.067Z,98678.96
2023-03-17T18:46:16.729Z,98681.34
2023-03-17T18:48:45.708Z,98681.78
2023-03-17T18:51:14.856Z,98679.48
2023-03-17T18:53:43.815Z,98681.50
2023-03-17T18:56:12.744Z,98678.36
2023-03-17T18:58:41.699Z,98668.27
2023-03-17T19:01:10.587Z,98668.09
2023-03-17T19:03:39.693Z,98663.39
2023-03-17T19:06:14.110Z,98662.97
2023-03-17T19:08:43.192Z,98663.41
2023-03-17T19:11:14.190Z,98659.16
2023-03-17T19:13:43.803Z,98661.00
2023-03-17T19:16:13.521Z,98659.23
2023-03-17T19:18:42.483Z,98655.59
2023-03-17T19:21:13.816Z,98651.23
2023-03-17T19:23:43.001Z,98652.94
2023-03-17T19:26:11.936Z,98652.02
2023-03-17T19:28:41.305Z,98648.58
2023-03-17T19:31:10.316Z,98649.59
2023-03-17T19:33:39.025Z,98652.30
2023-03-17T19:36:12.266Z,98654.66
2023-03-17T19:38:42.180Z,98655.45
2023-03-17T19:41:11.042Z,98658.34
2023-03-17T19:43:41.649Z,98658.45
2023-03-17T19:46:12.131Z,98658.20
2023-03-17T19:48:41.433Z,98657.66
2023-03-17T19:51:10.045Z,98657.83
2023-03-17T19:53:38.990Z,98656.10
2023-03-17T19:56:08.194Z,98654.23
2023-03-17T19:58:37.915Z,98652.30
2023-03-17T20:01:07.974Z,98654.84
2023-03-17T20:03:47.510Z,98655.81
2023-03-17T20:06:17.148Z,98662.48
2023-03-17T20:08:46.216Z,98662.45
2023-03-17T20:11:19.613Z,98662.08
2023-03-17T20:13:50.296Z,98657.56
2023-03-17T20:16:20.017Z,98655.48
2023-03-17T20:18:48.827Z,98653.68
2023-03-17T20:21:17.665Z,98651.73
2023-03-17T20:23:46.668Z,98649.98
2023-03-17T20:26:15.923Z,98650.11
2023-03-17T20:28:44.956Z,98649.20
2023-03-17T20:31:14.044Z,98650.73
2023-03-17T20:33:44.177Z,98648.10
2023-03-17T20:36:14.337Z,98647.36
2023-03-17T20:38:44.090Z,98644.20
2023-03-17T20:41:16.517Z,98643.44
2023-03-17T20:43:47.521Z,98642.56
2023-03-17T20:46:19.784Z,98640.98
2023-03-17T20:48:49.022Z,98639.42
2023-03-17T20:51:18.917Z,98638.34
2023-03-17T20:54:00.150Z,98633.98
2023-03-17T20:56:30.927Z,98631.36
2023-03-17T20:59:04.359Z,98630.66
2023-03-17T21:01:38.959Z,98627.17
2023-03-17T21:04:12.984Z,98625.44
2023-03-17T21:06:43.145Z,98625.05
2023-03-17T21:09:12.288Z,98628.99
2023-03-17T21:11:42.062Z,98626.73
2023-03-17T21:14:14.001Z,98625.65
2023-03-17T21:16:43.232Z,98619.57
2023-03-17T21:19:17.512Z,98614.19
2023-03-17T21:21:46.080Z,98609.01
2023-03-17T21:24:26.163Z,98607.79
2023-03-17T21:26:55.878Z,98607.58
2023-03-17T21:29:24.974Z,98608.73
2023-03-17T21:31:54.498Z,98603.17
2023-03-17T21:34:25.561Z,98605.92
2023-03-17T21:36:54.951Z,98599.06
2023-03-17T21:39:29.404Z,98599.63
2023-03-17T21:42:01.218Z,98597.04
2023-03-17T21:44:30.372Z,98595.89
2023-03-17T21:47:03.537Z,98595.07
2023-03-17T21:49:32.712Z,98594.75
2023-03-17T21:52:04.851Z,98591.02
2023-03-17T21:54:36.408Z,98585.02
2023-03-17T21:57:05.147Z,98585.07
2023-03-17T21:59:36.013Z,98579.89
2023-03-17T22:02:07.000Z,98579.55
2023-03-17T22:04:35.818Z,98576.93
2023-03-17T22:07:04.796Z,98583.84
2023-03-17T22:09:34.071Z,98584.02
2023-03-17T22:12:04.614Z,98583.86
2023-03-17T22:14:35.955Z,98589.70
2023-03-17T22:17:05.792Z,98578.88
2023-03-17T22:19:34.768Z,98579.31
2023-03-17T22:22:04.202Z,98576.60
2023-03-17T22:24:33.550Z,98569.58
2023-03-17T22:27:02.399Z,98567.37
2023-03-17T22:29:31.960Z,98570.11
2023-03-17T22:32:01.693Z,98564.95
2023-03-17T22:34:30.357Z,98562.73
2023-03-17T22:36:59.401Z,98552.05
2023-03-17T22:39:28.995Z,98551.73
2023-03-17T22:41:57.494Z,98548.42
2023-03-17T22:44:26.781Z,98551.02
2023-03-17T22:46:56.454Z,98552.05
2023-03-17T22:49:25.529Z,98549.43
2023-03-17T22:51:54.291Z,98550.77
2023-03-17T22:54:23.435Z,98552.80
2023-03-17T22:56:52.092Z,98553.95
2023-03-17T22:59:21.104Z,98551.53
2023-03-17T23:01:50.262Z,98550.16
2023-03-17T23:04:21.224Z,98548.08
2023-03-17T23:06:50.522Z,98552.70
2023-03-17T23:09:19.968Z,98551.61
2023-03-17T23:11:48.476Z,98556.95
2023-03-17T23:14:17.351Z,98554.54
2023-03-17T23:16:47.375Z,98553.83
2023-03-17T23:19:16.052Z,98549.20
2023-03-17T23:21:45.045Z,98550.59
2023-03-17T23:24:14.098Z,98542.15
2023-03-17T23:26:42.786Z,98548.55
2023-03-17T23:29:11.955Z,98549.08
2023-03-17T23:31:41.344Z,98541.80
2023-03-17T23:34:10.040Z,98541.79
2023-03-17T23:36:40.470Z,98537.98
2023-03-17T23:39:10.007Z,98536.29
2023-03-17T23:41:39.248Z,98538.34
2023-03-17T23:44:10.443Z,98539.52
2023-03-17T23:46:39.847Z,98533.11
2023-03-17T23:49:08.403Z,98534.14
2023-03-17T23:51:37.139Z,98532.05
2023-03-17T23:54:07.975Z,98534.27
2023-03-17T23:56:36.796Z,98534.62
2023-03-17T23:59:08.657Z,98530.63
